createdAt,value
2023-01-18T00:00:32.497Z,90.67
2023-01-18T00:03:01.012Z,89.79
2023-01-18T00:05:28.878Z,88.71
2023-01-18T00:07:56.811Z,90.07
2023-01-18T00:10:25.982Z,89.61
2023-01-18T00:12:57.244Z,89.06
2023-01-18T00:15:25.464Z,89.45
2023-01-18T00:17:53.663Z,88.36
2023-01-18T00:20:23.780Z,90.16
2023-01-18T00:22:52.685Z,89.04
2023-01-18T00:25:21.833Z,88.15
2023-01-18T00:27:52.853Z,88.62
2023-01-18T00:30:22.997Z,87.57
2023-01-18T00:32:56.094Z,87.23
2023-01-18T00:35:24.473Z,87.28
2023-01-18T00:37:53.495Z,88.99
2023-01-18T00:40:22.395Z,89.15
2023-01-18T00:43:09.176Z,88.75
2023-01-18T00:45:37.110Z,89.82
2023-01-18T00:48:05.227Z,89.57
2023-01-18T00:50:32.976Z,89.19
2023-01-18T00:53:03.206Z,88.97
2023-01-18T00:55:30.993Z,88.14
2023-01-18T00:58:00.163Z,87.73
2023-01-18T01:00:27.986Z,86.19
2023-01-18T01:02:56.545Z,86.98
2023-01-18T01:05:43.560Z,88.15
2023-01-18T01:08:16.839Z,87.95
2023-01-18T01:10:46.359Z,87.46
2023-01-18T01:13:34.526Z,87.11
2023-01-18T01:16:23.685Z,89.22
2023-01-18T01:19:09.484Z,89.33
2023-01-18T01:21:55.279Z,87.99
2023-01-18T01:24:40.545Z,88.31
2023-01-18T01:27:08.382Z,87.44
2023-01-18T01:29:37.490Z,86.87
2023-01-18T01:32:05.724Z,88.56
2023-01-18T01:34:33.743Z,87.21
2023-01-18T01:37:01.613Z,87.43
2023-01-18T01:39:29.943Z,86.81
2023-01-18T01:41:57.827Z,87.74
2023-01-18T01:44:52.004Z,87.80
2023-01-18T01:47:35.857Z,86.93
2023-01-18T01:50:10.856Z,86.89
2023-01-18T01:52:42.546Z,87.17
2023-01-18T01:55:16.932Z,87.82
2023-01-18T01:57:49.500Z,87.93
2023-01-18T02:00:20.635Z,87.28
2023-01-18T02:02:54.429Z,88.18
2023-01-18T02:05:22.855Z,88.34
2023-01-18T02:07:51.224Z,87.57
2023-01-18T02:10:19.157Z,86.97
2023-01-18T02:12:50.011Z,87.61
2023-01-18T02:15:20.336Z,86.57
2023-01-18T02:18:13.979Z,86.95
2023-01-18T02:21:10.255Z,87.82
2023-01-18T02:24:23.316Z,87.85
2023-01-18T02:27:15.716Z,88.67
2023-01-18T02:30:08.234Z,90.68
2023-01-18T02:32:49.597Z,90.01
2023-01-18T02:35:26.516Z,89.03
2023-01-18T02:38:06.657Z,89.42
2023-01-18T02:40:43.241Z,89.42
2023-01-18T02:43:31.403Z,89.08
2023-01-18T02:46:19.867Z,88.47
2023-01-18T02:48:50.557Z,88.32
2023-01-18T02:51:18.532Z,89.51
2023-01-18T02:53:49.698Z,90.78
2023-01-18T02:56:22.486Z,90.21
2023-01-18T02:58:56.002Z,90.05
2023-01-18T03:01:29.052Z,90.40
2023-01-18T03:04:01.866Z,91.04
2023-01-18T03:06:31.232Z,92.59
2023-01-18T03:09:00.837Z,92.22
2023-01-18T03:11:37.423Z,91.91
2023-01-18T03:14:22.956Z,91.49
2023-01-18T03:17:01.756Z,90.94
2023-01-18T03:19:58.657Z,91.33
2023-01-18T03:22:42.596Z,89.40
2023-01-18T03:25:14.490Z,89.03
2023-01-18T03:28:03.097Z,89.20
2023-01-18T03:30:52.182Z,90.57
2023-01-18T03:33:45.584Z,91.84
2023-01-18T03:36:23.414Z,91.38
2023-01-18T03:38:55.705Z,89.60
2023-01-18T03:41:27.830Z,90.60
2023-01-18T03:43:59.243Z,89.98
2023-01-18T03:46:30.209Z,90.72
2023-01-18T03:48:59.925Z,91.17
2023-01-18T03:51:37.383Z,90.48
2023-01-18T03:54:11.950Z,89.80
2023-01-18T03:56:47.318Z,89.63
2023-01-18T03:59:15.372Z,90.82
2023-01-18T04:01:44.854Z,89.98
2023-01-18T04:04:14.027Z,91.06
2023-01-18T04:06:42.515Z,91.21
2023-01-18T04:09:11.876Z,90.01
2023-01-18T04:11:39.672Z,91.19
2023-01-18T04:14:07.451Z,91.75
2023-01-18T04:16:35.243Z,93.21
2023-01-18T04:19:03.179Z,94.42
2023-01-18T04:21:32.391Z,95.58
2023-01-18T04:24:00.264Z,93.99
2023-01-18T04:26:28.212Z,94.35
2023-01-18T04:28:55.960Z,93.76
2023-01-18T04:31:23.856Z,92.31
2023-01-18T04:33:51.735Z,92.89
2023-01-18T04:36:20.129Z,92.50
2023-01-18T04:38:54.035Z,91.94
2023-01-18T04:41:22.155Z,91.60
2023-01-18T04:43:50.217Z,92.39
2023-01-18T04:46:18.163Z,92.85
2023-01-18T04:48:46.503Z,92.44
2023-01-18T04:51:15.252Z,91.00
2023-01-18T04:53:43.758Z,90.94
2023-01-18T04:56:13.258Z,90.87
2023-01-18T04:58:41.069Z,89.80
2023-01-18T05:01:12.282Z,88.95
2023-01-18T05:03:42.271Z,90.06
2023-01-18T05:06:11.821Z,90.71
2023-01-18T05:08:42.391Z,90.80
2023-01-18T05:11:13.801Z,89.96
2023-01-18T05:13:42.922Z,91.16
2023-01-18T05:16:14.932Z,91.76
2023-01-18T05:18:42.845Z,91.85
2023-01-18T05:21:11.269Z,91.34
2023-01-18T05:23:40.103Z,91.16
2023-01-18T05:26:14.453Z,89.99
2023-01-18T05:28:44.798Z,92.29
2023-01-18T05:31:12.765Z,91.74
2023-01-18T05:33:40.796Z,90.94
2023-01-18T05:36:09.220Z,90.46
2023-01-18T05:38:37.344Z,89.81
2023-01-18T05:41:05.296Z,90.77
2023-01-18T05:43:35.580Z,90.04
2023-01-18T05:46:05.962Z,91.41
2023-01-18T05:48:33.922Z,92.31
2023-01-18T05:51:01.899Z,92.41
2023-01-18T05:53:29.777Z,90.99
2023-01-18T05:55:58.881Z,90.51
2023-01-18T05:58:27.528Z,89.81
2023-01-18T06:00:56.858Z,89.53
2023-01-18T06:03:26.442Z,89.06
2023-01-18T06:05:54.343Z,88.53
2023-01-18T06:08:22.492Z,89.72
2023-01-18T06:10:54.502Z,89.65
2023-01-18T06:13:23.043Z,90.14
2023-01-18T06:15:51.808Z,90.01
2023-01-18T06:18:19.998Z,89.43
2023-01-18T06:20:49.255Z,88.36
2023-01-18T06:23:17.083Z,89.18
2023-01-18T06:25:45.049Z,88.96
2023-01-18T06:28:13.139Z,89.69
2023-01-18T06:30:42.833Z,90.34
2023-01-18T06:33:10.680Z,88.77
2023-01-18T06:35:38.499Z,90.03
2023-01-18T06:38:08.114Z,89.88
2023-01-18T06:40:36.045Z,89.26
2023-01-18T06:43:04.045Z,87.98
2023-01-18T06:45:31.950Z,89.00
2023-01-18T06:47:59.835Z,89.38
2023-01-18T06:50:28.194Z,89.35
2023-01-18T06:52:56.922Z,90.27
2023-01-18T06:55:26.401Z,90.64
2023-01-18T06:57:55.103Z,92.08
2023-01-18T07:00:24.962Z,89.70
2023-01-18T07:02:53.244Z,90.40
2023-01-18T07:05:21.179Z,89.96
2023-01-18T07:07:48.971Z,89.90
2023-01-18T07:10:17.167Z,88.76
2023-01-18T07:12:48.679Z,90.17
2023-01-18T07:15:22.067Z,90.35
2023-01-18T07:17:51.208Z,90.45
2023-01-18T07:20:19.806Z,90.26
2023-01-18T07:22:51.807Z,90.21
2023-01-18T07:25:20.705Z,90.08
2023-01-18T07:27:50.132Z,89.37
2023-01-18T07:30:18.683Z,89.13
2023-01-18T07:32:49.621Z,88.80
2023-01-18T07:35:18.317Z,88.07
2023-01-18T07:37:49.332Z,88.80
2023-01-18T07:40:18.010Z,89.48
2023-01-18T07:42:46.009Z,90.85
2023-01-18T07:45:15.402Z,89.96
2023-01-18T07:47:46.364Z,89.55
2023-01-18T07:50:17.444Z,88.98
2023-01-18T07:52:45.236Z,88.66
2023-01-18T07:55:13.082Z,89.24
2023-01-18T07:57:40.947Z,89.26
2023-01-18T08:00:10.844Z,89.10
2023-01-18T08:02:45.490Z,88.24
2023-01-18T08:05:13.371Z,88.36
2023-01-18T08:07:41.162Z,87.98
2023-01-18T08:10:10.122Z,88.11
2023-01-18T08:12:37.986Z,87.42
2023-01-18T08:15:07.025Z,86.96
2023-01-18T08:17:35.876Z,87.25
2023-01-18T08:20:06.156Z,88.84
2023-01-18T08:22:34.224Z,87.07
2023-01-18T08:25:02.238Z,88.09
2023-01-18T08:27:30.207Z,87.08
2023-01-18T08:29:58.209Z,86.58
2023-01-18T08:32:26.181Z,85.65
2023-01-18T08:34:54.041Z,85.99
2023-01-18T08:37:23.785Z,86.02
2023-01-18T08:39:51.693Z,86.06
2023-01-18T08:42:19.542Z,85.38
2023-01-18T08:44:48.782Z,85.86
2023-01-18T08:47:16.984Z,85.52
2023-01-18T08:49:44.965Z,84.87
2023-01-18T08:52:15.295Z,85.56
2023-01-18T08:54:44.524Z,86.13
2023-01-18T08:57:12.423Z,85.89
2023-01-18T08:59:40.329Z,86.70
2023-01-18T09:02:10.615Z,86.82
2023-01-18T09:04:38.537Z,86.29
2023-01-18T09:07:06.747Z,86.30
2023-01-18T09:09:34.585Z,84.96
2023-01-18T09:12:03.848Z,85.60
2023-01-18T09:14:31.754Z,86.25
2023-01-18T09:16:59.647Z,86.20
2023-01-18T09:19:27.546Z,85.90
2023-01-18T09:21:55.480Z,84.91
2023-01-18T09:24:23.521Z,86.28
2023-01-18T09:26:52.172Z,86.39
2023-01-18T09:29:21.727Z,85.24
2023-01-18T09:31:50.104Z,85.07
2023-01-18T09:34:19.935Z,84.69
2023-01-18T09:36:50.932Z,85.57
2023-01-18T09:39:19.445Z,85.40
2023-01-18T09:41:53.232Z,85.87
2023-01-18T09:44:28.734Z,84.30
2023-01-18T09:46:59.807Z,85.91
2023-01-18T09:49:33.867Z,86.07
2023-01-18T09:52:25.760Z,84.57
2023-01-18T09:55:01.455Z,85.33
2023-01-18T09:57:46.720Z,84.89
2023-01-18T10:00:22.834Z,84.95
2023-01-18T10:02:55.265Z,84.45
2023-01-18T10:05:26.464Z,82.74
2023-01-18T10:08:03.694Z,82.41
2023-01-18T10:10:37.332Z,82.44
2023-01-18T10:13:31.018Z,82.36
2023-01-18T10:16:01.318Z,83.53
2023-01-18T10:18:29.558Z,83.92
2023-01-18T10:21:02.015Z,83.50
2023-01-18T10:23:35.791Z,84.14
2023-01-18T10:26:07.534Z,83.70
2023-01-18T10:28:47.662Z,83.75
2023-01-18T10:31:36.652Z,83.04
2023-01-18T10:34:15.384Z,83.62
2023-01-18T10:36:46.898Z,84.48
2023-01-18T10:39:27.958Z,83.09
2023-01-18T10:42:00.185Z,82.87
2023-01-18T10:44:29.045Z,83.82
2023-01-18T10:47:00.579Z,83.43
2023-01-18T10:49:36.498Z,82.34
2023-01-18T10:52:26.628Z,82.38
2023-01-18T10:54:58.031Z,84.88
2023-01-18T10:57:30.892Z,84.65
2023-01-18T11:00:00.073Z,81.94
2023-01-18T11:02:32.797Z,83.10
2023-01-18T11:05:16.972Z,82.70
2023-01-18T11:07:45.096Z,81.80
2023-01-18T11:10:25.378Z,81.59
2023-01-18T11:12:54.311Z,81.67
2023-01-18T11:15:30.564Z,81.98
2023-01-18T11:18:06.620Z,81.57
2023-01-18T11:20:39.841Z,82.49
2023-01-18T11:23:17.891Z,81.04
2023-01-18T11:25:55.607Z,82.45
2023-01-18T11:28:27.248Z,83.05
2023-01-18T11:30:58.647Z,81.78
2023-01-18T11:33:29.479Z,82.56
2023-01-18T11:36:00.224Z,82.17
2023-01-18T11:38:30.642Z,82.37
2023-01-18T11:41:15.254Z,82.35
2023-01-18T11:43:54.855Z,82.66
2023-01-18T11:46:35.740Z,82.50
2023-01-18T11:49:17.247Z,82.32
2023-01-18T11:51:50.107Z,82.40
2023-01-18T11:54:26.801Z,83.19
2023-01-18T11:56:59.584Z,82.57
2023-01-18T11:59:31.001Z,81.93
2023-01-18T12:02:31.551Z,82.75
2023-01-18T12:05:28.184Z,81.23
2023-01-18T12:08:22.387Z,82.26
2023-01-18T12:11:07.229Z,82.09
2023-01-18T12:13:37.775Z,81.10
2023-01-18T12:16:16.118Z,81.45
2023-01-18T12:19:06.252Z,81.35
2023-01-18T12:21:47.248Z,80.93
2023-01-18T12:24:34.953Z,81.62
2023-01-18T12:27:14.063Z,80.50
2023-01-18T12:30:12.320Z,80.02
2023-01-18T12:32:57.682Z,80.13
2023-01-18T12:35:42.734Z,80.24
2023-01-18T12:38:18.946Z,80.30
2023-01-18T12:41:17.623Z,79.38
2023-01-18T12:44:00.200Z,79.06
2023-01-18T12:46:32.542Z,79.97
2023-01-18T12:49:04.941Z,79.82
2023-01-18T12:51:36.505Z,79.00
2023-01-18T12:54:14.296Z,80.10
2023-01-18T12:56:46.421Z,78.99
2023-01-18T12:59:20.530Z,78.53
2023-01-18T13:01:55.080Z,79.06
2023-01-18T13:04:29.180Z,78.39
2023-01-18T13:07:01.192Z,78.54
2023-01-18T13:09:36.984Z,78.29
2023-01-18T13:12:07.012Z,80.73
2023-01-18T13:14:42.020Z,78.69
2023-01-18T13:17:17.064Z,78.63
2023-01-18T13:19:51.448Z,78.95
2023-01-18T13:22:28.510Z,77.87
2023-01-18T13:25:26.256Z,78.31
2023-01-18T13:28:01.397Z,78.45
2023-01-18T13:30:31.876Z,78.03
2023-01-18T13:33:00.432Z,78.75
2023-01-18T13:35:33.311Z,78.22
2023-01-18T13:38:10.406Z,79.20
2023-01-18T13:40:42.985Z,77.56
2023-01-18T13:43:44.159Z,77.94
2023-01-18T13:46:21.658Z,77.30
2023-01-18T13:48:54.358Z,78.70
2023-01-18T13:51:52.290Z,77.89
2023-01-18T13:54:55.325Z,77.18
2023-01-18T13:57:24.770Z,77.71
2023-01-18T13:59:53.467Z,77.79
2023-01-18T14:02:27.670Z,77.48
2023-01-18T14:05:05.878Z,77.39
2023-01-18T14:07:41.458Z,78.50
2023-01-18T14:10:25.085Z,79.21
2023-01-18T14:12:55.952Z,78.08
2023-01-18T14:15:30.282Z,77.77
2023-01-18T14:17:59.475Z,78.02
2023-01-18T14:20:58.149Z,77.31
2023-01-18T14:23:53.002Z,77.73
2023-01-18T14:26:22.492Z,79.56
2023-01-18T14:28:56.922Z,78.92
2023-01-18T14:31:30.761Z,78.64
2023-01-18T14:33:58.791Z,78.67
2023-01-18T14:36:29.534Z,78.10
2023-01-18T14:39:12.987Z,78.09
2023-01-18T14:41:43.391Z,77.57
2023-01-18T14:44:22.526Z,77.69
2023-01-18T14:46:52.280Z,78.87
2023-01-18T14:49:26.201Z,77.84
2023-01-18T14:51:54.972Z,77.55
2023-01-18T14:54:26.118Z,77.49
2023-01-18T14:57:02.700Z,77.36
2023-01-18T14:59:33.368Z,78.05
2023-01-18T15:02:04.481Z,77.45
2023-01-18T15:04:38.957Z,77.48
2023-01-18T15:07:10.490Z,78.04
2023-01-18T15:09:40.737Z,76.82
2023-01-18T15:12:11.079Z,76.60
2023-01-18T15:14:48.586Z,76.64
2023-01-18T15:17:21.859Z,76.93
2023-01-18T15:19:53.064Z,76.65
2023-01-18T15:22:25.656Z,76.77
2023-01-18T15:24:53.648Z,77.27
2023-01-18T15:27:21.751Z,76.36
2023-01-18T15:29:53.908Z,76.57
2023-01-18T15:32:23.345Z,76.73
2023-01-18T15:34:53.246Z,76.47
2023-01-18T15:37:25.921Z,76.13
2023-01-18T15:40:01.487Z,76.15
2023-01-18T15:42:33.217Z,76.76
2023-01-18T15:45:02.526Z,76.32
2023-01-18T15:47:36.662Z,77.37
2023-01-18T15:50:16.450Z,78.21
2023-01-18T15:52:46.665Z,78.15
2023-01-18T15:55:24.577Z,78.01
2023-01-18T15:58:00.458Z,78.45
2023-01-18T16:00:33.300Z,78.71
2023-01-18T16:03:03.049Z,79.10
2023-01-18T16:05:32.899Z,77.97
2023-01-18T16:08:19.916Z,77.48
2023-01-18T16:10:50.025Z,77.34
2023-01-18T16:13:32.162Z,78.04
2023-01-18T16:16:19.200Z,77.78
2023-01-18T16:18:49.976Z,77.99
2023-01-18T16:21:34.145Z,78.23
2023-01-18T16:24:02.116Z,78.86
2023-01-18T16:26:31.999Z,78.17
2023-01-18T16:29:08.921Z,78.41
2023-01-18T16:31:43.316Z,79.04
2023-01-18T16:34:20.601Z,78.02
2023-01-18T16:36:48.908Z,78.30
2023-01-18T16:39:16.922Z,78.96
2023-01-18T16:41:52.020Z,79.04
2023-01-18T16:44:20.807Z,79.86
2023-01-18T16:46:50.552Z,80.12
2023-01-18T16:49:18.599Z,79.42
2023-01-18T16:51:47.526Z,78.27
2023-01-18T16:54:15.459Z,78.87
2023-01-18T16:56:45.889Z,78.55
2023-01-18T16:59:17.922Z,79.01
2023-01-18T17:01:46.719Z,79.08
2023-01-18T17:04:16.570Z,79.34
2023-01-18T17:06:45.417Z,78.77
2023-01-18T17:09:21.219Z,78.50
2023-01-18T17:11:50.027Z,77.19
2023-01-18T17:14:18.217Z,77.25
2023-01-18T17:16:46.773Z,78.01
2023-01-18T17:19:18.147Z,77.20
2023-01-18T17:21:47.858Z,78.49
2023-01-18T17:24:16.530Z,79.27
2023-01-18T17:26:45.114Z,77.67
2023-01-18T17:29:17.388Z,76.91
2023-01-18T17:31:52.162Z,76.67
2023-01-18T17:34:27.925Z,76.39
2023-01-18T17:36:58.425Z,76.76
2023-01-18T17:39:37.424Z,77.09
2023-01-18T17:42:19.290Z,76.18
2023-01-18T17:44:50.823Z,76.28
2023-01-18T17:47:21.008Z,77.41
2023-01-18T17:49:50.217Z,78.31
2023-01-18T17:52:18.046Z,77.40
2023-01-18T17:54:45.806Z,78.90
2023-01-18T17:57:13.990Z,78.49
2023-01-18T17:59:41.831Z,78.24
2023-01-18T18:02:11.622Z,78.85
2023-01-18T18:04:39.619Z,77.96
2023-01-18T18:07:08.815Z,76.39
2023-01-18T18:09:40.614Z,76.11
2023-01-18T18:12:09.532Z,76.36
2023-01-18T18:14:40.176Z,76.19
2023-01-18T18:17:09.258Z,76.42
2023-01-18T18:19:37.208Z,76.58
2023-01-18T18:22:06.098Z,76.54
2023-01-18T18:24:35.354Z,77.00
2023-01-18T18:27:03.674Z,76.20
2023-01-18T18:29:31.604Z,75.94
2023-01-18T18:31:59.588Z,75.07
2023-01-18T18:34:27.542Z,76.34
2023-01-18T18:36:55.342Z,75.11
2023-01-18T18:39:23.665Z,74.98
2023-01-18T18:41:53.122Z,74.72
2023-01-18T18:44:21.010Z,75.43
2023-01-18T18:46:48.975Z,76.17
2023-01-18T18:49:16.824Z,75.28
2023-01-18T18:51:44.668Z,75.96
2023-01-18T18:54:12.828Z,76.27
2023-01-18T18:56:41.487Z,75.08
2023-01-18T18:59:10.907Z,74.50
2023-01-18T19:01:38.873Z,76.07
2023-01-18T19:04:06.814Z,76.24
2023-01-18T19:06:35.381Z,75.72
2023-01-18T19:09:05.308Z,75.62
2023-01-18T19:11:33.399Z,75.42
2023-01-18T19:14:03.987Z,75.27
2023-01-18T19:16:33.424Z,76.20
2023-01-18T19:19:02.569Z,76.66
2023-01-18T19:21:30.488Z,75.67
2023-01-18T19:23:58.354Z,74.83
2023-01-18T19:26:26.466Z,75.40
2023-01-18T19:28:56.825Z,75.43
2023-01-18T19:31:24.807Z,74.92
2023-01-18T19:33:56.311Z,74.94
2023-01-18T19:36:24.283Z,75.61
2023-01-18T19:38:57.815Z,76.15
2023-01-18T19:41:30.227Z,76.51
2023-01-18T19:43:58.217Z,76.34
2023-01-18T19:46:26.265Z,76.88
2023-01-18T19:48:59.537Z,76.87
2023-01-18T19:51:30.417Z,75.81
2023-01-18T19:53:58.608Z,75.46
2023-01-18T19:56:28.080Z,76.06
2023-01-18T19:58:56.017Z,75.54
2023-01-18T20:01:36.294Z,75.35
2023-01-18T20:04:07.677Z,75.36
2023-01-18T20:06:37.580Z,76.28
2023-01-18T20:09:17.674Z,76.49
2023-01-18T20:11:46.455Z,76.46
2023-01-18T20:14:18.401Z,76.02
2023-01-18T20:16:46.922Z,75.96
2023-01-18T20:19:17.420Z,75.28
2023-01-18T20:21:45.237Z,74.55
2023-01-18T20:24:13.047Z,74.05
2023-01-18T20:26:42.020Z,75.25
2023-01-18T20:29:11.129Z,75.13
2023-01-18T20:31:40.421Z,75.60
2023-01-18T20:34:08.727Z,76.56
2023-01-18T20:36:37.930Z,76.21
2023-01-18T20:39:06.341Z,75.06
2023-01-18T20:41:34.341Z,75.81
2023-01-18T20:44:02.232Z,75.26
2023-01-18T20:46:30.080Z,75.46
2023-01-18T20:48:58.502Z,74.89
2023-01-18T20:51:27.134Z,75.40
2023-01-18T20:53:56.554Z,74.92
2023-01-18T20:56:29.833Z,74.87
2023-01-18T20:59:00.137Z,74.97
2023-01-18T21:01:32.926Z,75.42
2023-01-18T21:04:02.732Z,75.40
2023-01-18T21:06:31.371Z,75.35
2023-01-18T21:09:01.660Z,75.00
2023-01-18T21:11:29.555Z,75.00
2023-01-18T21:13:59.871Z,75.78
2023-01-18T21:16:28.515Z,75.63
2023-01-18T21:18:58.688Z,75.58
2023-01-18T21:21:29.290Z,76.15
2023-01-18T21:24:01.043Z,75.92
2023-01-18T21:26:28.971Z,76.06
2023-01-18T21:28:56.843Z,76.40
2023-01-18T21:31:25.109Z,75.22
2023-01-18T21:33:53.010Z,75.85
2023-01-18T21:36:22.915Z,75.27
2023-01-18T21:38:51.319Z,75.00
2023-01-18T21:41:38.665Z,75.24
2023-01-18T21:44:24.066Z,75.56
2023-01-18T21:46:53.061Z,75.14
2023-01-18T21:50:03.929Z,75.11
2023-01-18T21:52:44.686Z,75.57
2023-01-18T21:55:13.214Z,75.29
2023-01-18T21:57:42.418Z,75.25
2023-01-18T22:00:11.670Z,75.33
2023-01-18T22:02:39.477Z,75.05
2023-01-18T22:05:08.601Z,74.70
2023-01-18T22:07:36.631Z,74.76
2023-01-18T22:10:06.770Z,75.16
2023-01-18T22:12:38.856Z,74.42
2023-01-18T22:15:09.485Z,75.68
2023-01-18T22:17:37.303Z,75.64
2023-01-18T22:20:05.819Z,75.30
2023-01-18T22:22:33.635Z,75.37
2023-01-18T22:25:02.339Z,76.31
2023-01-18T22:27:30.366Z,76.11
2023-01-18T22:29:58.244Z,75.89
2023-01-18T22:32:27.837Z,75.73
2023-01-18T22:34:55.643Z,75.81
2023-01-18T22:37:23.519Z,75.91
2023-01-18T22:39:51.705Z,75.86
2023-01-18T22:42:20.016Z,76.81
2023-01-18T22:44:47.914Z,76.88
2023-01-18T22:47:15.661Z,76.68
2023-01-18T22:49:44.811Z,76.92
2023-01-18T22:52:14.760Z,77.59
2023-01-18T22:54:42.740Z,77.88
2023-01-18T22:57:10.662Z,77.99
2023-01-18T22:59:38.485Z,78.67
2023-01-18T23:02:06.279Z,78.72
2023-01-18T23:04:34.347Z,78.01
2023-01-18T23:07:03.760Z,77.60
2023-01-18T23:09:31.577Z,78.45
2023-01-18T23:11:59.416Z,78.73
2023-01-18T23:14:44.725Z,78.07
2023-01-18T23:17:32.591Z,78.11
2023-01-18T23:20:00.651Z,77.72
2023-01-18T23:22:30.085Z,77.91
2023-01-18T23:24:58.144Z,77.67
2023-01-18T23:27:26.168Z,77.20
2023-01-18T23:29:58.802Z,76.87
2023-01-18T23:32:30.383Z,76.27
2023-01-18T23:34:58.664Z,76.86
2023-01-18T23:37:27.355Z,76.73
2023-01-18T23:40:14.253Z,76.35
2023-01-18T23:42:59.802Z,76.44
2023-01-18T23:45:45.213Z,76.78
2023-01-18T23:48:32.423Z,76.28
2023-01-18T23:51:18.233Z,75.82
2023-01-18T23:54:03.920Z,76.27
2023-01-18T23:56:33.161Z,76.71
2023-01-18T23:59:01.060Z,76.94
